Time;durP1;ratioP1;P1;durP2;ratioP2;P2;SDS_P1;SDS_P2;PMS_P1;PMS_P2;Temp;Humidity;BMP_temperature;BMP_pressure;BME280_temperature;BME280_humidity;BME280_pressure;Samples;Min_cycle;Max_cycle;Signal;HPM_P1;HPM_P2
2021/04/24 00:02:07;;;;;;;29.90;13.97;;;;;;;9.36;55.39;102183.19;5116768;27;20494;-50
2021/04/24 00:04:34;;;;;;;24.07;10.50;;;;;;;9.34;55.71;102185.69;5114884;28;20519;-48
2021/04/24 00:07:00;;;;;;;29.20;12.37;;;;;;;9.57;55.11;102187.25;5117056;27;20735;-57
2021/04/24 00:09:27;;;;;;;35.90;15.73;;;;;;;9.45;55.36;102181.25;5117996;28;20451;-50
2021/04/24 00:11:54;;;;;;;24.77;10.90;;;;;;;9.38;55.51;102185.09;5116355;27;20464;-50
2021/04/24 00:14:21;;;;;;;19.97;9.27;;;;;;;9.22;55.71;102175.38;5116660;27;20475;-49
2021/04/24 00:16:47;;;;;;;32.73;13.47;;;;;;;9.59;55.12;102179.66;5118060;28;20480;-50
2021/04/24 00:19:14;;;;;;;31.13;12.00;;;;;;;9.21;56.03;102176.19;5116957;27;20517;-51
2021/04/24 00:21:41;;;;;;;30.20;13.47;;;;;;;9.66;54.99;102171.53;5117663;28;20449;-48
2021/04/24 00:24:08;;;;;;;25.27;10.13;;;;;;;9.54;55.03;102178.44;5112536;27;20533;-50
2021/04/24 00:26:35;;;;;;;26.27;11.13;;;;;;;9.18;55.92;102176.88;5118062;28;20811;-49
2021/04/24 00:29:03;;;;;;;32.17;12.17;;;;;;;9.48;55.85;102178.00;5116839;27;20476;-51
2021/04/24 00:31:30;;;;;;;30.30;9.97;;;;;;;9.41;55.43;102179.25;5117640;28;20758;-50
2021/04/24 00:33:57;;;;;;;39.17;15.07;;;;;;;9.37;55.98;102174.66;5091882;27;20471;-48
2021/04/24 00:36:24;;;;;;;27.93;11.10;;;;;;;9.08;56.74;102173.53;5117305;28;20969;-50
2021/04/24 00:38:51;;;;;;;26.30;11.27;;;;;;;9.05;56.88;102172.53;5114583;28;20568;-48
2021/04/24 00:41:18;;;;;;;27.80;12.17;;;;;;;9.09;56.92;102172.75;5116777;28;20509;-50
2021/04/24 00:43:44;;;;;;;39.37;13.07;;;;;;;9.12;56.63;102167.84;5114841;27;20566;-49
2021/04/24 00:46:14;;;;;;;31.90;11.60;;;;;;;8.96;56.49;102169.31;5116772;28;20430;-50
2021/04/24 00:48:41;;;;;;;38.00;11.90;;;;;;;9.05;56.69;102180.28;5115248;28;20787;-49
2021/04/24 00:51:08;;;;;;;27.03;11.37;;;;;;;8.77;57.67;102172.25;5116513;28;20518;-49
2021/04/24 00:53:35;;;;;;;34.73;11.47;;;;;;;8.78;57.41;102171.47;5111869;28;20533;-50
2021/04/24 00:56:02;;;;;;;33.10;12.00;;;;;;;8.67;57.65;102175.81;5116425;28;20785;-52
2021/04/24 00:58:29;;;;;;;25.63;10.90;;;;;;;8.66;57.95;102174.03;5115101;28;20484;-49
2021/04/24 01:00:56;;;;;;;38.43;11.30;;;;;;;8.72;57.80;102177.06;5116282;28;20924;-49
2021/04/24 01:03:23;;;;;;;48.57;16.40;;;;;;;9.16;57.00;102174.97;5113769;28;20476;-48
2021/04/24 01:05:51;;;;;;;33.33;11.20;;;;;;;8.76;57.54;102168.78;5116461;28;20464;-53
2021/04/24 01:08:17;;;;;;;29.43;12.17;;;;;;;8.70;58.25;102167.44;5117789;27;20472;-49
2021/04/24 01:10:44;;;;;;;24.00;10.80;;;;;;;8.80;57.55;102171.56;5116792;28;20536;-49
2021/04/24 01:13:12;;;;;;;35.50;14.40;;;;;;;8.90;57.76;102174.00;5106200;27;20477;-48
2021/04/24 01:15:39;;;;;;;25.53;10.67;;;;;;;8.98;57.38;102170.28;5123776;27;20514;-48
2021/04/24 01:18:08;;;;;;;39.97;10.97;;;;;;;9.13;56.62;102167.91;5101451;27;20920;-50
2021/04/24 01:20:36;;;;;;;33.97;11.37;;;;;;;9.12;56.90;102162.69;5126155;27;20461;-49
2021/04/24 01:23:05;;;;;;;33.40;11.70;;;;;;;9.31;56.20;102165.75;5111166;28;20564;-49
2021/04/24 01:25:32;;;;;;;25.20;11.23;;;;;;;9.01;56.68;102164.47;5116684;28;20482;-49
2021/04/24 01:28:00;;;;;;;28.07;10.23;;;;;;;8.67;57.65;102160.38;5113486;28;20492;-49
2021/04/24 01:30:31;;;;;;;44.20;16.07;;;;;;;9.12;57.56;102152.38;5116292;28;20459;-49
2021/04/24 01:32:59;;;;;;;31.53;12.60;;;;;;;8.93;57.60;102150.19;5113902;27;20931;-51
2021/04/24 01:35:27;;;;;;;32.47;11.97;;;;;;;9.32;56.44;102159.81;5116635;28;20453;-48
2021/04/24 01:37:54;;;;;;;40.13;16.33;;;;;;;9.55;56.68;102160.47;5105603;28;20500;-48
2021/04/24 01:40:22;;;;;;;33.10;11.70;;;;;;;9.42;56.19;102153.59;5116593;28;20544;-49
2021/04/24 01:42:48;;;;;;;29.27;9.90;;;;;;;8.86;58.18;102152.31;5114830;28;20512;-52
2021/04/24 01:45:17;;;;;;;29.13;10.47;;;;;;;8.48;59.25;102160.72;5116770;28;20453;-52
2021/04/24 01:47:44;;;;;;;32.20;14.60;;;;;;;9.00;58.52;102148.16;5115346;28;20770;-48
2021/04/24 01:50:13;;;;;;;35.67;13.37;;;;;;;9.04;57.62;102150.13;5116506;28;20431;-51
2021/04/24 01:52:41;;;;;;;39.90;14.00;;;;;;;8.96;57.86;102146.13;5111744;28;20805;-51
2021/04/24 01:55:12;;;;;;;25.10;9.73;;;;;;;9.18;57.13;102145.09;5116326;28;20436;-49
2021/04/24 01:57:40;;;;;;;31.17;13.67;;;;;;;9.28;57.31;102144.91;5108388;28;20556;-49
2021/04/24 02:00:09;;;;;;;31.07;10.90;;;;;;;8.99;57.69;102154.09;5116727;28;20457;-48
2021/04/24 02:02:35;;;;;;;30.30;10.20;;;;;;;8.86;57.91;102153.97;5111104;28;20469;-48
2021/04/24 02:05:05;;;;;;;25.03;9.70;;;;;;;8.87;57.87;102141.22;5116561;28;20428;-50
2021/04/24 02:07:32;;;;;;;29.87;10.80;;;;;;;8.71;58.54;102143.50;5098556;27;20453;-49
2021/04/24 02:09:59;;;;;;;30.83;8.80;;;;;;;8.70;58.74;102134.88;5131355;27;20951;-50
2021/04/24 02:12:26;;;;;;;28.37;11.07;;;;;;;8.76;58.84;102132.75;5114000;28;20896;-51
2021/04/24 02:14:54;;;;;;;32.93;13.60;;;;;;;9.05;57.77;102126.19;5116396;28;20548;-48
2021/04/24 02:17:23;;;;;;;42.17;17.13;;;;;;;9.05;57.72;102120.16;5090295;27;20483;-52
2021/04/24 02:19:51;;;;;;;27.73;10.20;;;;;;;8.93;58.13;102120.19;5117365;28;20581;-49
2021/04/24 02:22:19;;;;;;;31.73;9.90;;;;;;;8.76;58.21;102117.31;5112777;28;20477;-50
2021/04/24 02:24:50;;;;;;;33.63;12.13;;;;;;;8.78;58.35;102120.88;5116044;28;20461;-48
2021/04/24 02:27:17;;;;;;;27.43;9.57;;;;;;;8.69;58.73;102122.81;5111120;28;20978;-50
2021/04/24 02:29:44;;;;;;;25.03;10.03;;;;;;;8.76;58.78;102117.31;5115940;28;20543;-48
2021/04/24 02:32:14;;;;;;;29.90;10.80;;;;;;;8.66;58.83;102126.84;5114654;28;20787;-48
2021/04/24 02:34:42;;;;;;;50.33;17.33;;;;;;;8.76;58.98;102111.25;5115959;28;20456;-50
2021/04/24 02:37:11;;;;;;;66.93;26.83;;;;;;;9.16;58.52;102118.31;5114669;28;20487;-48
2021/04/24 02:39:39;;;;;;;35.57;13.13;;;;;;;8.98;58.11;102120.50;5118663;27;20505;-50
2021/04/24 02:42:09;;;;;;;38.03;12.23;;;;;;;9.04;58.26;102119.25;5115422;28;20473;-49
2021/04/24 02:44:36;;;;;;;21.60;9.03;;;;;;;9.09;57.56;102122.16;5111361;28;20916;-50
2021/04/24 02:47:03;;;;;;;30.47;11.50;;;;;;;8.75;58.70;102120.69;5114937;28;20741;-50
2021/04/24 02:49:31;;;;;;;27.10;11.30;;;;;;;9.02;58.19;102120.81;5115734;28;20515;-53
2021/04/24 02:51:58;;;;;;;31.10;10.43;;;;;;;9.02;58.93;102125.97;5115686;28;20457;-51
2021/04/24 02:54:25;;;;;;;23.07;9.47;;;;;;;8.46;59.69;102119.44;5112572;28;20481;-52
2021/04/24 02:56:53;;;;;;;36.83;10.07;;;;;;;8.73;59.75;102122.22;5115953;28;20487;-53
2021/04/24 02:59:21;;;;;;;42.87;16.03;;;;;;;9.03;59.33;102122.59;5110286;28;20739;-49
2021/04/24 03:01:48;;;;;;;39.27;12.40;;;;;;;8.90;58.87;102114.81;5115304;28;20567;-51
2021/04/24 03:04:16;;;;;;;30.30;11.70;;;;;;;8.96;58.54;102115.25;5112040;28;20473;-49
2021/04/24 03:06:43;;;;;;;23.47;9.50;;;;;;;8.81;59.12;102119.31;5115993;28;20453;-49
2021/04/24 03:09:10;;;;;;;44.80;17.87;;;;;;;9.00;59.24;102122.41;5106578;28;20535;-48
2021/04/24 03:11:38;;;;;;;50.33;20.27;;;;;;;9.21;58.94;102122.09;5115566;28;20452;-53
2021/04/24 03:14:06;;;;;;;23.50;9.07;;;;;;;8.97;58.54;102117.03;5114672;28;20968;-53
2021/04/24 03:16:33;;;;;;;25.67;10.10;;;;;;;9.19;58.62;102122.00;5115412;28;20487;-53
2021/04/24 03:18:59;;;;;;;33.97;13.63;;;;;;;9.12;58.47;102116.34;5110595;28;20476;-51
2021/04/24 03:21:27;;;;;;;33.30;10.43;;;;;;;9.04;59.13;102120.94;5115689;28;20492;-48
2021/04/24 03:23:55;;;;;;;28.80;9.40;;;;;;;8.96;58.87;102120.41;5114243;28;20484;-48
2021/04/24 03:26:22;;;;;;;31.40;12.40;;;;;;;9.13;58.18;102121.56;5115533;28;20445;-50
2021/04/24 03:28:48;;;;;;;27.73;11.30;;;;;;;9.10;58.88;102117.88;5114712;28;20483;-48
2021/04/24 03:31:15;;;;;;;36.43;13.00;;;;;;;9.04;58.72;102124.38;5115327;28;20780;-49
2021/04/24 03:33:42;;;;;;;68.00;28.30;;;;;;;9.27;58.27;102114.81;5114130;28;20786;-50
2021/04/24 03:36:10;;;;;;;40.80;13.60;;;;;;;9.39;57.78;102121.59;5115535;28;20547;-48
2021/04/24 03:38:37;;;;;;;24.90;9.10;;;;;;;9.12;58.27;102112.06;5114156;28;20447;-51
2021/04/24 03:41:06;;;;;;;24.67;9.57;;;;;;;9.35;57.45;102119.56;5117666;28;20879;-50
2021/04/24 03:43:33;;;;;;;22.40;10.10;;;;;;;9.03;58.50;102122.59;5115454;28;20762;-49
2021/04/24 03:46:00;;;;;;;21.03;7.97;;;;;;;8.87;58.63;102120.63;5119126;28;20463;-50
2021/04/24 03:48:26;;;;;;;33.47;11.83;;;;;;;9.20;58.13;102120.31;5114639;28;20476;-49
2021/04/24 03:50:53;;;;;;;25.23;9.80;;;;;;;8.98;58.61;102123.09;5118907;28;20467;-50
2021/04/24 03:53:20;;;;;;;35.57;12.27;;;;;;;8.89;58.69;102124.22;5115675;28;20934;-51
2021/04/24 03:55:47;;;;;;;26.13;10.87;;;;;;;8.97;58.75;102127.31;5118908;28;20463;-50
2021/04/24 03:58:14;;;;;;;26.03;9.10;;;;;;;9.42;57.70;102124.34;5112595;27;20526;-48
2021/04/24 04:00:41;;;;;;;24.73;10.90;;;;;;;9.40;57.73;102129.44;5126427;27;20482;-50
2021/04/24 04:03:08;;;;;;;33.73;13.03;;;;;;;9.05;58.30;102133.94;5117485;28;20789;-51
2021/04/24 04:05:37;;;;;;;23.43;9.10;;;;;;;8.87;58.57;102145.50;5118819;28;20884;-49
2021/04/24 04:08:05;;;;;;;21.30;8.63;;;;;;;9.05;58.48;102130.44;5115836;28;20470;-49
2021/04/24 04:10:32;;;;;;;22.53;8.10;;;;;;;8.64;59.60;102132.78;5118512;28;20551;-52
2021/04/24 04:12:59;;;;;;;26.83;8.63;;;;;;;8.85;59.64;102134.19;5114840;28;20487;-48
2021/04/24 04:15:28;;;;;;;22.50;7.90;;;;;;;8.84;59.08;102130.72;5118879;28;20463;-49
2021/04/24 04:17:59;;;;;;;22.00;8.53;;;;;;;8.43;60.28;102134.66;5117488;28;20477;-49
2021/04/24 04:20:26;;;;;;;23.70;8.23;;;;;;;8.62;60.15;102133.47;5118534;28;20457;-49
2021/04/24 04:22:53;;;;;;;27.17;8.37;;;;;;;8.58;59.74;102126.28;5097633;27;20479;-48
2021/04/24 04:25:20;;;;;;;29.60;9.60;;;;;;;8.99;58.73;102130.91;5130983;27;20457;-48
2021/04/24 04:27:46;;;;;;;19.97;8.63;;;;;;;9.01;58.25;102134.50;5115381;28;20772;-49
2021/04/24 04:30:14;;;;;;;27.97;8.67;;;;;;;9.38;57.31;102137.84;5118359;28;20540;-49
2021/04/24 04:32:42;;;;;;;16.47;6.83;;;;;;;9.12;58.04;102127.50;5091001;27;20479;-51
2021/04/24 04:35:10;;;;;;;21.20;7.53;;;;;;;9.04;58.37;102134.69;5133195;27;20506;-50
2021/04/24 04:37:37;;;;;;;32.53;11.47;;;;;;;9.15;58.31;102138.03;5117035;28;20473;-49
2021/04/24 04:40:05;;;;;;;24.57;9.10;;;;;;;8.97;58.31;102132.47;5118115;28;20478;-49
2021/04/24 04:42:31;;;;;;;23.90;8.50;;;;;;;9.14;58.47;102131.06;5107063;27;20571;-49
2021/04/24 04:44:58;;;;;;;18.00;7.90;;;;;;;9.18;57.89;102133.09;5131495;27;20920;-50
2021/04/24 04:47:24;;;;;;;32.60;11.00;;;;;;;9.31;57.65;102136.50;5114115;27;20865;-53
2021/04/24 04:49:53;;;;;;;35.67;12.40;;;;;;;9.57;56.29;102135.72;5121311;27;20901;-50
2021/04/24 04:52:19;;;;;;;22.70;7.60;;;;;;;9.31;57.15;102124.53;5117213;28;20448;-48
2021/04/24 04:54:46;;;;;;;17.27;7.73;;;;;;;9.47;57.37;102127.28;5108113;28;20516;-50
2021/04/24 04:57:13;;;;;;;29.20;7.50;;;;;;;9.27;56.91;102125.09;5117705;28;20962;-48
2021/04/24 04:59:39;;;;;;;23.20;7.43;;;;;;;9.24;57.43;102129.16;5111670;28;20519;-50
2021/04/24 05:02:06;;;;;;;24.27;8.87;;;;;;;9.31;56.84;102121.06;5117422;28;20467;-49
2021/04/24 05:04:33;;;;;;;18.53;7.67;;;;;;;9.30;57.04;102122.75;5104216;27;20512;-48
2021/04/24 05:07:00;;;;;;;23.73;6.97;;;;;;;9.56;56.13;102131.38;5118510;27;20452;-50
2021/04/24 05:09:27;;;;;;;32.33;11.93;;;;;;;9.49;56.91;102130.84;5115330;28;20486;-50
2021/04/24 05:11:53;;;;;;;26.40;6.43;;;;;;;9.30;57.26;102127.00;5117448;28;20484;-48
2021/04/24 05:14:20;;;;;;;19.03;6.90;;;;;;;9.43;56.63;102133.88;5116050;28;20483;-51
2021/04/24 05:16:47;;;;;;;19.13;6.83;;;;;;;9.22;56.95;102129.03;5117563;28;20773;-53
2021/04/24 05:19:13;;;;;;;17.00;5.20;;;;;;;9.01;57.55;102134.50;5105055;28;20481;-49
2021/04/24 05:21:40;;;;;;;27.97;10.10;;;;;;;9.47;56.50;102125.56;5116925;28;20431;-49
2021/04/24 05:24:09;;;;;;;20.70;6.87;;;;;;;9.44;56.33;102133.97;5116204;28;20452;-49
2021/04/24 05:26:35;;;;;;;20.40;7.00;;;;;;;9.41;56.62;102136.38;5117077;28;20460;-51
2021/04/24 05:29:02;;;;;;;19.70;6.90;;;;;;;9.50;55.88;102135.19;5106485;28;20508;-48
2021/04/24 05:31:29;;;;;;;18.20;7.30;;;;;;;9.67;55.81;102131.19;5117211;27;20479;-49
2021/04/24 05:33:57;;;;;;;44.93;15.00;;;;;;;9.56;55.85;102136.53;5114592;28;20905;-48
2021/04/24 05:36:24;;;;;;;20.73;6.30;;;;;;;9.71;55.73;102133.19;5116791;28;20544;-48
2021/04/24 05:38:51;;;;;;;16.13;6.33;;;;;;;9.55;56.04;102134.69;5112856;28;20477;-48
2021/04/24 05:41:21;;;;;;;19.90;6.33;;;;;;;9.95;55.04;102148.50;5116955;27;20453;-50
2021/04/24 05:43:48;;;;;;;20.93;6.23;;;;;;;9.80;55.07;102138.94;5110076;28;20481;-51
2021/04/24 05:46:16;;;;;;;15.07;5.33;;;;;;;9.78;55.34;102144.78;5116901;28;20442;-50
2021/04/24 05:48:43;;;;;;;19.20;5.10;;;;;;;9.88;55.12;102138.59;5115268;28;20462;-49
2021/04/24 05:51:10;;;;;;;19.23;6.93;;;;;;;9.57;55.78;102133.16;5116829;28;20539;-48
2021/04/24 05:53:37;;;;;;;12.67;4.87;;;;;;;9.93;54.56;102137.19;5114076;27;20511;-52
2021/04/24 05:56:04;;;;;;;28.13;6.97;;;;;;;9.97;55.08;102126.28;5116799;28;20428;-50
2021/04/24 05:58:33;;;;;;;25.97;7.33;;;;;;;10.02;54.81;102127.50;5115246;28;20481;-50
2021/04/24 06:01:00;;;;;;;17.40;6.17;;;;;;;10.13;54.11;102131.69;5116420;27;20851;-51
2021/04/24 06:03:26;;;;;;;16.43;7.30;;;;;;;9.93;54.79;102129.44;5114517;28;20559;-49
2021/04/24 06:05:53;;;;;;;15.20;5.47;;;;;;;10.04;54.54;102131.06;5116726;28;20427;-48
2021/04/24 06:08:20;;;;;;;20.87;5.47;;;;;;;10.15;54.50;102133.47;5112006;28;20480;-51
2021/04/24 06:10:47;;;;;;;15.60;5.17;;;;;;;10.27;54.18;102129.09;5116339;28;20868;-48
2021/04/24 06:13:13;;;;;;;17.00;5.73;;;;;;;10.24;54.11;102134.03;5112714;28;20539;-53
2021/04/24 06:15:41;;;;;;;25.67;7.40;;;;;;;10.59;53.62;102127.72;5116495;28;20766;-50
2021/04/24 06:18:07;;;;;;;28.43;6.10;;;;;;;10.27;54.56;102131.69;5114192;28;20455;-48
2021/04/24 06:20:34;;;;;;;19.40;5.37;;;;;;;10.34;54.72;102136.44;5116382;28;20456;-48
2021/04/24 06:23:01;;;;;;;18.40;6.27;;;;;;;10.44;54.23;102131.88;5114012;28;20939;-49
2021/04/24 06:25:27;;;;;;;25.00;6.03;;;;;;;10.71;53.50;102125.03;5116284;28;20438;-49
2021/04/24 06:27:54;;;;;;;17.70;5.90;;;;;;;10.86;53.17;102124.22;5114997;28;20445;-49
2021/04/24 06:30:22;;;;;;;17.93;5.73;;;;;;;10.89;53.18;102119.22;5116028;28;20461;-55
2021/04/24 06:32:52;;;;;;;22.10;5.80;;;;;;;11.03;53.11;102120.09;5114724;28;20472;-48
2021/04/24 06:35:20;;;;;;;16.97;4.00;;;;;;;11.03;53.16;102120.09;5116352;28;20745;-49
2021/04/24 06:37:46;;;;;;;18.40;5.50;;;;;;;11.14;52.96;102119.06;5105193;28;20477;-52
2021/04/24 06:40:15;;;;;;;31.60;10.30;;;;;;;11.39;52.85;102112.78;5116014;28;20881;-51
2021/04/24 06:42:42;;;;;;;24.77;5.23;;;;;;;11.20;52.51;102118.53;5113680;28;20927;-51
2021/04/24 06:45:10;;;;;;;18.33;4.90;;;;;;;11.41;52.23;102116.38;5118521;27;20452;-52
2021/04/24 06:47:36;;;;;;;25.83;7.00;;;;;;;11.39;51.93;102120.53;5113174;28;20461;-49
2021/04/24 06:50:07;;;;;;;18.90;5.87;;;;;;;11.51;51.10;102111.72;5115993;28;20463;-49
2021/04/24 06:52:33;;;;;;;20.10;7.00;;;;;;;11.48;51.14;102110.75;5114086;28;20479;-51
2021/04/24 06:55:00;;;;;;;18.03;4.50;;;;;;;11.63;50.91;102119.34;5115619;28;20862;-48
2021/04/24 06:57:27;;;;;;;15.30;5.10;;;;;;;12.41;49.50;102111.75;5113239;27;20476;-50
2021/04/24 06:59:54;;;;;;;19.67;4.57;;;;;;;12.11;49.77;102117.84;5116775;27;20480;-49
2021/04/24 07:02:20;;;;;;;18.63;5.10;;;;;;;11.99;49.77;102120.59;5115353;28;20491;-49
2021/04/24 07:04:47;;;;;;;19.27;5.73;;;;;;;12.11;49.38;102116.97;5114900;27;20466;-50
2021/04/24 07:07:14;;;;;;;17.40;4.50;;;;;;;12.12;49.00;102116.16;5115748;28;20461;-49
2021/04/24 07:09:41;;;;;;;12.67;4.03;;;;;;;11.66;50.13;102122.09;5114086;28;20477;-50
2021/04/24 07:12:08;;;;;;;18.93;4.17;;;;;;;12.52;48.31;102117.50;5115310;28;20473;-50
2021/04/24 07:14:35;;;;;;;19.43;4.50;;;;;;;12.46;48.55;102125.81;5106532;28;20480;-51
2021/04/24 07:17:02;;;;;;;14.17;4.27;;;;;;;12.62;48.44;102118.91;5119749;28;20817;-51
2021/04/24 07:19:29;;;;;;;16.07;4.63;;;;;;;12.27;48.56;102122.19;5117512;28;20494;-53
2021/04/24 07:21:55;;;;;;;12.23;5.20;;;;;;;12.34;48.21;102128.63;5119360;28;20467;-48
2021/04/24 07:24:23;;;;;;;14.73;4.30;;;;;;;12.58;47.78;102124.72;5125160;27;20480;-52
2021/04/24 07:26:49;;;;;;;38.40;11.50;;;;;;;13.40;46.85;102123.00;5119412;28;20479;-51
2021/04/24 07:29:17;;;;;;;18.63;4.30;;;;;;;12.96;47.25;102120.72;5116853;28;20534;-49
2021/04/24 07:31:44;;;;;;;16.30;3.73;;;;;;;12.63;47.78;102131.03;5119407;28;20752;-48
2021/04/24 07:34:11;;;;;;;16.30;4.60;;;;;;;13.22;46.32;102131.59;5114641;28;20453;-51
2021/04/24 07:36:38;;;;;;;22.83;7.07;;;;;;;12.77;46.20;102129.22;5119256;28;20436;-50
2021/04/24 07:39:05;;;;;;;13.60;3.67;;;;;;;13.21;45.42;102129.81;5118017;28;20552;-48
2021/04/24 07:41:33;;;;;;;12.20;3.20;;;;;;;13.17;46.03;102126.19;5119159;28;20975;-51
2021/04/24 07:44:00;;;;;;;13.97;3.90;;;;;;;13.44;45.31;102131.00;5117031;27;20479;-51
2021/04/24 07:46:27;;;;;;;22.20;6.50;;;;;;;13.14;45.38;102130.31;5119074;27;20483;-52
2021/04/24 07:48:54;;;;;;;10.90;4.50;;;;;;;13.26;44.70;102130.03;5116382;27;20785;-48
2021/04/24 07:51:20;;;;;;;27.13;9.03;;;;;;;12.92;45.18;102127.44;5139437;27;20456;-55
2021/04/24 07:53:47;;;;;;;13.93;2.90;;;;;;;12.75;45.88;102136.00;5117719;27;20911;-49
2021/04/24 07:56:15;;;;;;;15.87;3.93;;;;;;;13.10;45.49;102135.34;5119242;28;20779;-51
2021/04/24 07:58:42;;;;;;;10.87;3.37;;;;;;;13.79;43.70;102133.66;5117447;28;20754;-50
2021/04/24 08:01:09;;;;;;;19.73;4.70;;;;;;;13.75;43.92;102137.81;5127918;27;20519;-50
2021/04/24 08:03:36;;;;;;;18.33;3.57;;;;;;;12.88;45.29;102147.94;5137992;27;20927;-50
2021/04/24 08:06:04;;;;;;;15.23;5.33;;;;;;;12.92;44.87;102149.88;5139329;27;20459;-55
2021/04/24 08:08:30;;;;;;;18.40;7.30;;;;;;;13.67;43.64;102143.41;5138006;27;20477;-52
2021/04/24 08:10:57;;;;;;;15.60;4.10;;;;;;;14.09;42.96;102137.75;5138914;27;20476;-52
2021/04/24 08:13:25;;;;;;;12.83;3.87;;;;;;;13.63;43.47;102140.69;5135470;27;20481;-52
2021/04/24 08:15:52;;;;;;;22.43;3.60;;;;;;;13.84;42.85;102147.75;5139292;27;20462;-54
2021/04/24 08:18:19;;;;;;;15.10;3.43;;;;;;;14.01;42.44;102146.00;5127794;27;20557;-53
2021/04/24 08:20:45;;;;;;;17.87;4.27;;;;;;;13.50;42.82;102151.22;5118217;28;20763;-50
2021/04/24 08:23:12;;;;;;;11.30;3.23;;;;;;;13.89;41.74;102154.06;5117115;28;20563;-51
2021/04/24 08:25:39;;;;;;;15.73;4.20;;;;;;;14.14;40.28;102157.91;5118067;28;20457;-53
2021/04/24 08:28:05;;;;;;;15.40;3.27;;;;;;;14.52;39.49;102149.31;5117194;28;20490;-54
2021/04/24 08:30:32;;;;;;;30.33;12.03;;;;;;;14.45;41.13;102156.78;5118272;28;20912;-52
2021/04/24 08:33:00;;;;;;;14.53;5.17;;;;;;;14.30;41.08;102153.44;5108992;28;20560;-51
2021/04/24 08:35:26;;;;;;;16.70;5.83;;;;;;;14.81;40.14;102160.19;5118129;28;20459;-54
2021/04/24 08:37:53;;;;;;;16.40;4.00;;;;;;;14.39;39.95;102164.28;5116869;28;20927;-52
2021/04/24 08:40:20;;;;;;;13.17;3.83;;;;;;;15.15;37.83;102159.16;5118303;28;20463;-53
2021/04/24 08:42:48;;;;;;;18.70;5.33;;;;;;;14.75;38.79;102158.22;5117337;28;20942;-52
2021/04/24 08:45:16;;;;;;;10.90;3.40;;;;;;;14.47;39.08;102161.16;5088105;27;20496;-52
2021/04/24 08:47:45;;;;;;;14.73;3.80;;;;;;;14.90;37.66;102160.63;5136639;27;20555;-51
2021/04/24 08:50:15;;;;;;;10.90;3.27;;;;;;;15.01;37.69;102160.25;5138505;27;20761;-53
2021/04/24 08:52:41;;;;;;;11.80;3.13;;;;;;;14.85;37.78;102164.72;5120653;27;20451;-49
2021/04/24 08:55:11;;;;;;;16.10;4.97;;;;;;;15.15;37.67;102163.44;5117641;28;20457;-51
2021/04/24 08:57:38;;;;;;;16.10;3.50;;;;;;;15.19;37.55;102166.28;5112006;28;20567;-52
2021/04/24 09:00:08;;;;;;;10.83;2.97;;;;;;;15.43;36.25;102162.09;5117778;28;20459;-51
2021/04/24 09:02:35;;;;;;;18.97;4.47;;;;;;;15.44;36.76;102166.47;5118099;27;20520;-52
2021/04/24 09:05:02;;;;;;;9.23;3.30;;;;;;;15.78;33.50;102166.22;5117401;28;20980;-50
2021/04/24 09:07:30;;;;;;;9.40;2.83;;;;;;;15.49;34.00;102162.38;5117463;28;20964;-51
2021/04/24 09:09:58;;;;;;;15.43;5.10;;;;;;;15.08;36.35;102162.31;5101427;28;20787;-50
2021/04/24 09:12:35;;;;;;;14.83;4.30;;;;;;;15.07;36.68;102171.78;5115707;28;20491;-50
2021/04/24 09:15:19;;;;;;;14.87;3.40;;;;;;;15.23;36.84;102170.78;5117345;28;20507;-54
2021/04/24 09:17:51;;;;;;;20.83;5.30;;;;;;;15.40;36.82;102165.47;5088561;28;20501;-53
2021/04/24 09:20:19;;;;;;;17.93;4.50;;;;;;;15.24;35.72;102166.47;5097045;28;20835;-53
2021/04/24 09:23:04;;;;;;;12.33;3.50;;;;;;;15.25;35.41;102173.47;5094547;28;20473;-52
2021/04/24 09:25:36;;;;;;;13.10;4.27;;;;;;;15.43;34.77;102173.38;5096486;28;20461;-49
2021/04/24 09:28:05;;;;;;;16.63;4.43;;;;;;;15.81;34.05;102168.06;5094892;28;20477;-49
2021/04/24 09:30:33;;;;;;;9.27;3.70;;;;;;;16.42;33.85;102167.97;5096508;28;20905;-51
2021/04/24 09:33:05;;;;;;;9.80;3.33;;;;;;;16.09;33.21;102173.59;5102475;27;20498;-51
2021/04/24 09:35:47;;;;;;;11.43;3.00;;;;;;;15.72;33.55;102173.78;5128401;27;20463;-53
2021/04/24 09:38:24;;;;;;;12.40;3.60;;;;;;;15.49;33.59;102168.44;5112517;27;20473;-52
2021/04/24 09:41:13;;;;;;;14.20;4.80;;;;;;;15.83;33.89;102168.16;5119042;27;20474;-53
2021/04/24 09:43:57;;;;;;;9.33;3.83;;;;;;;16.13;33.10;102167.66;5119030;27;20468;-53
2021/04/24 09:46:27;;;;;;;9.13;3.13;;;;;;;16.40;32.12;102169.63;5104304;28;20544;-51
2021/04/24 09:49:16;;;;;;;11.13;2.93;;;;;;;16.09;31.12;102168.38;5114902;28;20469;-51
2021/04/24 09:51:45;;;;;;;8.00;2.37;;;;;;;15.28;31.66;102177.91;5116347;28;20461;-50
2021/04/24 09:54:14;;;;;;;10.77;3.20;;;;;;;15.20;32.78;102173.25;5114901;28;20477;-54
2021/04/24 09:56:41;;;;;;;8.37;3.37;;;;;;;15.60;32.37;102170.63;5116380;28;20445;-51
2021/04/24 09:59:09;;;;;;;15.30;5.77;;;;;;;16.29;30.67;102171.78;5094446;28;20481;-52
2021/04/24 10:01:38;;;;;;;11.33;2.60;;;;;;;16.03;30.77;102154.28;5095730;28;20543;-55
2021/04/24 10:04:11;;;;;;;8.83;3.10;;;;;;;16.72;30.81;102160.47;5091473;28;20485;-54
2021/04/24 10:06:39;;;;;;;10.23;3.50;;;;;;;15.77;32.85;102156.66;5095916;28;20461;-52
2021/04/24 10:09:19;;;;;;;11.13;3.20;;;;;;;15.70;30.89;102159.81;5094074;28;20485;-51
2021/04/24 10:12:10;;;;;;;7.30;2.70;;;;;;;15.28;30.26;102159.72;5097111;28;20453;-52
2021/04/24 10:14:39;;;;;;;12.43;3.77;;;;;;;15.16;32.22;102167.81;5104304;27;20942;-51
2021/04/24 10:17:08;;;;;;;11.13;4.60;;;;;;;15.90;31.37;102162.38;5136707;27;20460;-51
2021/04/24 10:19:36;;;;;;;9.47;2.27;;;;;;;15.08;30.81;102168.38;5110073;27;20472;-49
2021/04/24 10:22:05;;;;;;;7.10;1.70;;;;;;;14.93;28.99;102167.69;5116164;28;20520;-50
2021/04/24 10:24:32;;;;;;;7.20;1.97;;;;;;;14.67;28.83;102165.59;5113629;27;20563;-49
2021/04/24 10:26:59;;;;;;;6.13;1.60;;;;;;;15.59;27.39;102171.47;5115557;28;20497;-51
2021/04/24 10:29:26;;;;;;;7.60;2.67;;;;;;;16.42;26.92;102165.38;5114199;27;20467;-50
2021/04/24 10:31:54;;;;;;;4.87;1.90;;;;;;;17.18;25.12;102165.66;5115662;28;20956;-49
2021/04/24 10:34:21;;;;;;;6.43;2.33;;;;;;;17.22;26.69;102156.25;5114286;27;20479;-49
2021/04/24 10:36:48;;;;;;;14.13;4.43;;;;;;;16.56;27.75;102172.00;5115839;28;20448;-52
2021/04/24 10:39:19;;;;;;;5.93;1.70;;;;;;;15.53;27.17;102167.78;5108075;27;20480;-50
2021/04/24 10:41:49;;;;;;;6.03;2.20;;;;;;;15.39;26.16;102164.56;5115792;28;20456;-50
2021/04/24 10:44:17;;;;;;;8.83;2.57;;;;;;;16.22;25.92;102167.16;5100853;27;20491;-51
2021/04/24 10:46:47;;;;;;;33.73;16.97;;;;;;;16.65;25.77;102163.66;5117466;27;20536;-51
2021/04/24 10:49:22;;;;;;;19.10;8.60;;;;;;;16.98;26.65;102164.91;5122668;27;20479;-53
2021/04/24 10:52:05;;;;;;;6.43;2.80;;;;;;;17.19;26.21;102156.13;5136103;27;20512;-51
2021/04/24 10:54:35;;;;;;;16.20;6.67;;;;;;;17.32;26.59;102158.34;5130255;27;20491;-50
2021/04/24 10:57:25;;;;;;;7.57;2.67;;;;;;;17.22;27.00;102153.66;5133456;27;21196;-51
2021/04/24 10:59:55;;;;;;;12.63;4.50;;;;;;;16.98;25.80;102157.97;5111148;27;20502;-51
2021/04/24 11:02:38;;;;;;;9.40;2.90;;;;;;;16.45;26.38;102157.66;5135826;27;20484;-49
2021/04/24 11:05:19;;;;;;;8.00;2.40;;;;;;;15.96;25.92;102152.25;5132329;27;20517;-54
2021/04/24 11:07:46;;;;;;;11.40;3.10;;;;;;;16.24;26.64;102157.72;5136399;27;20530;-50
2021/04/24 11:10:26;;;;;;;8.30;3.17;;;;;;;16.32;26.92;102157.16;5113452;27;20483;-52
2021/04/24 11:12:59;;;;;;;6.93;2.27;;;;;;;16.76;26.81;102153.66;5133495;27;20998;-51
2021/04/24 11:15:26;;;;;;;6.37;2.17;;;;;;;16.86;25.76;102145.38;5136117;27;20480;-52
2021/04/24 11:17:55;;;;;;;10.47;3.07;;;;;;;17.58;25.94;102155.78;5114637;27;20483;-49
2021/04/24 11:20:51;;;;;;;4.53;1.80;;;;;;;17.49;25.79;102153.72;5115667;28;20456;-50
2021/04/24 11:23:41;;;;;;;7.50;2.27;;;;;;;17.08;25.67;102163.56;5108379;28;20469;-49
2021/04/24 11:26:09;;;;;;;11.03;4.30;;;;;;;16.90;26.52;102148.06;5094998;28;20873;-48